Time;durP1;ratioP1;P1;durP2;ratioP2;P2;SDS_P1;SDS_P2;PMS_P1;PMS_P2;Temp;Humidity;BMP_temperature;BMP_pressure;BME280_temperature;BME280_humidity;BME280_pressure;Samples;Min_cycle;Max_cycle;Signal;HPM_P1;HPM_P2
2021/06/15 00:00:37;;;;;;;0.43;0.40;;;20.60;91.50;;;;;;5027548;28;20395;-86
2021/06/15 00:03:04;;;;;;;0.22;0.22;;;20.60;91.70;;;;;;5016870;28;20042;-86
2021/06/15 00:05:29;;;;;;;;;;;20.60;91.90;;;;;;5027858;28;20083;-86
2021/06/15 00:07:55;;;;;;;2.00;0.22;;;20.50;91.80;;;;;;5026118;28;20406;-86
2021/06/15 00:10:23;;;;;;;0.10;0.10;;;20.70;91.80;;;;;;5023931;28;20029;-86
2021/06/15 00:12:51;;;;;;;0.17;0.17;;;20.60;91.70;;;;;;5012203;28;20272;-86
2021/06/15 00:15:18;;;;;;;0.20;0.20;;;20.70;91.60;;;;;;5016701;28;20479;-86
2021/06/15 00:17:45;;;;;;;0.10;0.10;;;20.60;91.70;;;;;;5013602;28;20887;-86
2021/06/15 00:20:12;;;;;;;0.20;0.20;;;20.60;94.90;;;;;;5019408;28;20045;-86
2021/06/15 00:22:38;;;;;;;0.45;0.40;;;20.40;92.50;;;;;;5016027;28;20423;-86
2021/06/15 00:25:05;;;;;;;0.38;0.32;;;20.20;93.00;;;;;;5038057;28;20764;-86
2021/06/15 00:27:31;;;;;;;0.63;0.20;;;20.10;92.60;;;;;;5022743;28;20057;-86
2021/06/15 00:29:58;;;;;;;1.15;0.55;;;20.10;92.40;;;;;;5024044;28;20185;-86
2021/06/15 00:32:24;;;;;;;0.10;0.10;;;20.30;93.40;;;;;;5021610;28;20030;-87
2021/06/15 00:34:50;;;;;;;;;;;20.10;93.70;;;;;;5031908;28;20140;-87
2021/06/15 00:37:16;;;;;;;0.00;0.00;;;20.00;93.70;;;;;;5024700;28;20008;-87
2021/06/15 00:39:42;;;;;;;0.20;0.20;;;20.00;93.70;;;;;;5022066;28;20131;-87
2021/06/15 00:42:08;;;;;;;0.00;0.00;;;19.70;94.10;;;;;;5027684;28;20029;-86
2021/06/15 00:44:35;;;;;;;0.13;0.13;;;19.90;94.00;;;;;;5028735;28;20849;-86
2021/06/15 00:47:03;;;;;;;0.47;0.25;;;20.10;93.80;;;;;;5023655;28;20034;-86
2021/06/15 00:49:33;;;;;;;0.10;0.10;;;19.80;94.00;;;;;;5036539;28;20391;-86
2021/06/15 00:51:59;;;;;;;0.80;0.13;;;19.80;94.20;;;;;;5012222;28;20609;-86
2021/06/15 00:54:25;;;;;;;0.10;0.10;;;19.90;94.20;;;;;;5016044;28;20121;-86
2021/06/15 00:56:51;;;;;;;0.00;0.00;;;20.10;93.30;;;;;;5021589;28;20104;-86
2021/06/15 00:59:18;;;;;;;0.20;0.20;;;20.10;93.50;;;;;;5023922;28;20401;-87
2021/06/15 01:01:44;;;;;;;;;;;20.00;93.00;;;;;;5021268;28;20034;-87
2021/06/15 01:04:11;;;;;;;0.10;0.10;;;19.60;93.50;;;;;;5015589;28;20309;-87
2021/06/15 01:06:53;;;;;;;1.35;0.57;;;19.80;92.60;;;;;;5021931;28;20113;-86
2021/06/15 01:09:50;;;;;;;0.32;0.32;;;20.00;92.60;;;;;;5031452;28;20018;-86
2021/06/15 01:13:04;;;;;;;0.10;0.10;;;20.20;92.50;;;;;;5022258;28;20034;-87
2021/06/15 01:15:38;;;;;;;0.52;0.10;;;20.10;92.90;;;;;;5017065;28;20076;-86
2021/06/15 01:18:10;;;;;;;0.20;0.20;;;19.90;93.40;;;;;;5027112;28;20065;-86
2021/06/15 01:20:40;;;;;;;0.10;0.10;;;19.70;94.00;;;;;;5010868;28;20030;-86
2021/06/15 01:23:28;;;;;;;0.30;0.30;;;19.40;95.10;;;;;;5018729;28;20479;-87
2021/06/15 01:26:05;;;;;;;0.68;0.68;;;19.10;95.90;;;;;;5023473;28;20033;-86
2021/06/15 01:28:39;;;;;;;0.05;0.05;;;19.00;97.10;;;;;;5012490;28;20029;-86
2021/06/15 01:31:19;;;;;;;0.30;0.30;;;19.00;97.30;;;;;;5020188;28;20065;-86
2021/06/15 01:33:50;;;;;;;0.32;0.28;;;19.10;97.20;;;;;;5019195;28;20038;-85
2021/06/15 01:36:18;;;;;;;0.35;0.35;;;19.00;97.50;;;;;;5014078;28;20033;-84
2021/06/15 01:38:55;;;;;;;0.10;0.10;;;19.10;97.60;;;;;;5020217;28;20171;-85
2021/06/15 01:42:03;;;;;;;0.20;0.20;;;19.00;97.80;;;;;;5018946;28;20029;-85
2021/06/15 01:44:32;;;;;;;0.47;0.40;;;18.90;98.60;;;;;;5041686;28;20029;-85
2021/06/15 01:47:09;;;;;;;0.38;0.28;;;18.90;98.80;;;;;;5021442;28;20828;-85
2021/06/15 01:49:51;;;;;;;0.20;0.20;;;18.80;99.10;;;;;;5019068;28;20030;-85
2021/06/15 01:52:18;;;;;;;0.13;0.13;;;18.70;99.20;;;;;;5014612;28;20121;-85
2021/06/15 01:54:47;;;;;;;0.22;0.22;;;19.00;98.60;;;;;;5024853;28;20112;-85
2021/06/15 01:57:17;;;;;;;0.10;0.10;;;19.10;98.30;;;;;;5013455;28;20030;-85
2021/06/15 01:59:46;;;;;;;0.28;0.28;;;19.30;96.50;;;;;;5019084;28;20033;-85
2021/06/15 02:02:13;;;;;;;0.10;0.10;;;19.10;97.10;;;;;;5026099;28;20517;-85
2021/06/15 02:04:48;;;;;;;0.20;0.20;;;19.40;96.30;;;;;;5019982;28;20042;-85
2021/06/15 02:07:17;;;;;;;6.55;1.35;;;19.40;95.60;;;;;;5017850;28;20030;-85
2021/06/15 02:09:49;;;;;;;0.00;0.00;;;19.30;95.00;;;;;;5032867;28;20034;-85
2021/06/15 02:12:20;;;;;;;0.17;0.17;;;19.40;95.10;;;;;;5017425;28;20024;-85
2021/06/15 02:14:46;;;;;;;0.10;0.10;;;19.40;94.60;;;;;;5022662;28;20455;-85
2021/06/15 02:17:14;;;;;;;0.10;0.10;;;19.30;94.80;;;;;;5022239;28;20032;-85
2021/06/15 02:19:42;;;;;;;27.33;0.73;;;19.00;95.50;;;;;;5011663;28;20065;-85
2021/06/15 02:22:12;;;;;;;0.50;0.50;;;19.10;95.50;;;;;;5011920;28;20640;-85
2021/06/15 02:24:44;;;;;;;0.20;0.20;;;18.90;96.00;;;;;;5022309;28;20017;-85
2021/06/15 02:27:13;;;;;;;0.20;0.15;;;18.80;96.30;;;;;;5022212;28;20032;-84
2021/06/15 02:29:40;;;;;;;0.25;0.17;;;19.00;96.50;;;;;;5018986;28;20018;-85
2021/06/15 02:32:11;;;;;;;0.22;0.22;;;18.90;96.10;;;;;;5014081;28;20076;-86
2021/06/15 02:34:43;;;;;;;0.20;0.20;;;18.80;96.60;;;;;;5021626;28;20079;-86
2021/06/15 02:37:12;;;;;;;0.28;0.28;;;18.80;96.50;;;;;;5025157;28;20026;-86
2021/06/15 02:39:39;;;;;;;0.15;0.15;;;18.60;96.90;;;;;;5019708;28;20116;-85
2021/06/15 02:42:13;;;;;;;0.17;0.17;;;18.60;97.20;;;;;;5022706;28;20132;-86
2021/06/15 02:44:42;;;;;;;0.20;0.20;;;18.50;97.70;;;;;;5017404;28;20481;-85
2021/06/15 02:47:11;;;;;;;0.15;0.15;;;18.50;97.60;;;;;;5020395;28;20546;-85
2021/06/15 02:49:53;;;;;;;0.20;0.20;;;18.50;97.40;;;;;;5017340;28;20108;-85
2021/06/15 02:52:45;;;;;;;0.10;0.10;;;18.60;97.50;;;;;;5026740;28;20025;-85
2021/06/15 02:55:20;;;;;;;0.10;0.10;;;18.50;97.50;;;;;;5029443;28;20036;-86
2021/06/15 02:57:47;;;;;;;0.20;0.20;;;18.40;97.40;;;;;;5028992;28;20021;-85
2021/06/15 03:00:14;;;;;;;0.13;0.13;;;18.50;97.10;;;;;;5025970;28;20033;-85
2021/06/15 03:02:39;;;;;;;0.13;0.13;;;18.40;97.10;;;;;;5009665;28;20026;-85
2021/06/15 03:05:07;;;;;;;0.47;0.47;;;18.50;96.90;;;;;;5024944;28;20049;-85
2021/06/15 03:07:34;;;;;;;0.65;0.50;;;18.50;97.10;;;;;;5013331;28;20036;-86
2021/06/15 03:10:02;;;;;;;0.80;0.52;;;18.50;96.90;;;;;;5011303;28;20840;-86
2021/06/15 03:12:33;;;;;;;0.17;0.17;;;18.50;97.00;;;;;;5017680;28;20038;-86
2021/06/15 03:15:08;;;;;;;0.22;0.22;;;18.30;99.90;;;;;;5011651;28;20037;-85
2021/06/15 03:17:38;;;;;;;0.30;0.30;;;18.20;97.60;;;;;;5010740;28;20087;-85
2021/06/15 03:20:12;;;;;;;0.88;0.85;;;18.20;97.90;;;;;;5024278;28;20377;-86
2021/06/15 03:23:03;;;;;;;0.47;0.47;;;18.20;97.70;;;;;;5011168;28;20050;-86
2021/06/15 03:25:34;;;;;;;0.17;0.10;;;18.10;98.10;;;;;;5011420;28;20033;-86
2021/06/15 03:28:15;;;;;;;0.20;0.20;;;18.20;97.30;;;;;;5019364;28;20022;-85
2021/06/15 03:30:43;;;;;;;0.10;0.10;;;18.30;97.40;;;;;;5021386;28;20116;-85
2021/06/15 03:33:13;;;;;;;1.08;0.43;;;18.40;99.90;;;;;;5010368;28;20063;-85
2021/06/15 03:35:47;;;;;;;0.10;0.10;;;18.40;97.20;;;;;;5024701;28;20037;-87
2021/06/15 03:38:15;;;;;;;0.00;0.00;;;18.30;97.50;;;;;;5036348;28;20030;-89
2021/06/15 03:40:48;;;;;;;0.10;0.10;;;18.60;96.30;;;;;;5027744;28;20044;-89
2021/06/15 03:43:15;;;;;;;0.10;0.10;;;18.50;96.60;;;;;;5012728;28;20035;-86
2021/06/15 03:45:47;;;;;;;;;;;18.70;96.20;;;;;;5027355;28;20026;-84
2021/06/15 03:48:15;;;;;;;0.10;0.10;;;18.50;96.30;;;;;;5012844;28;19924;-83
2021/06/15 03:50:41;;;;;;;0.55;0.55;;;18.60;96.70;;;;;;5009685;28;20022;-82
2021/06/15 03:53:10;;;;;;;0.75;0.65;;;18.60;96.10;;;;;;5029671;28;20157;-82
2021/06/15 03:55:39;;;;;;;0.30;0.30;;;18.80;95.60;;;;;;5022967;28;20044;-82
2021/06/15 03:58:08;;;;;;;0.38;0.38;;;18.50;95.70;;;;;;5014850;28;20101;-89
2021/06/15 04:00:37;;;;;;;0.10;0.10;;;18.10;96.60;;;;;;5018848;28;20049;-89
2021/06/15 04:03:06;;;;;;;0.13;0.13;;;18.00;96.90;;;;;;5012816;28;20751;-88
2021/06/15 04:05:36;;;;;;;0.30;0.30;;;18.00;96.80;;;;;;5032330;28;20756;-87
2021/06/15 04:08:07;;;;;;;0.13;0.13;;;17.90;97.40;;;;;;5014393;28;20120;-87
2021/06/15 04:10:35;;;;;;;0.03;0.03;;;17.70;97.70;;;;;;5031474;28;20021;-88
2021/06/15 04:13:03;;;;;;;0.30;0.30;;;17.70;98.10;;;;;;5031134;28;20062;-89
2021/06/15 04:15:30;;;;;;;0.45;0.10;;;17.60;98.30;;;;;;5032292;28;20026;-88
2021/06/15 04:18:00;;;;;;;0.20;0.20;;;17.70;98.40;;;;;;5004830;28;20116;-88
2021/06/15 04:20:30;;;;;;;0.82;0.57;;;17.60;99.20;;;;;;5007988;28;20037;-86
2021/06/15 04:22:58;;;;;;;0.65;0.65;;;18.10;98.90;;;;;;5028695;28;20466;-87
2021/06/15 04:25:31;;;;;;;0.10;0.10;;;18.10;98.90;;;;;;5031188;28;20033;-87
2021/06/15 04:28:00;;;;;;;0.30;0.30;;;18.60;98.40;;;;;;5020652;28;20049;-87
2021/06/15 04:30:29;;;;;;;0.10;0.10;;;18.50;98.20;;;;;;5030074;28;20033;-88
2021/06/15 04:33:01;;;;;;;0.15;0.15;;;18.90;98.00;;;;;;5010871;28;20734;-87
2021/06/15 04:35:27;;;;;;;0.00;0.00;;;19.30;99.90;;;;;;5029796;28;20033;-88
2021/06/15 04:37:55;;;;;;;0.10;0.10;;;19.20;96.60;;;;;;5026989;28;20026;-88
2021/06/15 04:40:31;;;;;;;0.30;0.30;;;19.40;96.10;;;;;;5020843;28;20076;-88
2021/06/15 04:43:08;;;;;;;;;;;19.20;96.00;;;;;;5021418;28;20399;-90
2021/06/15 04:45:40;;;;;;;2.65;0.40;;;19.00;96.40;;;;;;5011437;28;20002;-89
2021/06/15 04:48:08;;;;;;;0.17;0.10;;;19.70;95.60;;;;;;5020085;28;20022;-87
2021/06/15 04:50:35;;;;;;;0.10;0.10;;;19.90;94.90;;;;;;5010392;28;20402;-88
2021/06/15 04:53:03;;;;;;;0.35;0.20;;;20.10;95.00;;;;;;5020852;28;20033;-88
2021/06/15 04:55:34;;;;;;;0.03;0.03;;;19.90;95.10;;;;;;5020483;28;20533;-88
2021/06/15 04:58:02;;;;;;;0.10;0.10;;;20.40;94.30;;;;;;5020811;28;20026;-87
2021/06/15 05:00:29;;;;;;;0.20;0.20;;;19.70;94.50;;;;;;5025387;28;20030;-87
2021/06/15 05:02:58;;;;;;;0.10;0.10;;;19.80;95.20;;;;;;5019143;28;20053;-88
2021/06/15 05:05:24;;;;;;;;;;;20.20;94.80;;;;;;5029541;28;20502;-87
2021/06/15 05:08:01;;;;;;;0.17;0.08;;;20.60;94.40;;;;;;5025048;28;19944;-87
2021/06/15 05:10:31;;;;;;;0.03;0.03;;;20.20;94.40;;;;;;5021796;28;20060;-88
2021/06/15 05:12:58;;;;;;;0.00;0.00;;;20.70;99.90;;;;;;5022185;28;20044;-88
2021/06/15 05:15:27;;;;;;;0.15;0.15;;;21.10;93.10;;;;;;5023571;28;20938;-87
2021/06/15 05:17:55;;;;;;;0.05;0.05;;;21.70;92.00;;;;;;5025803;28;20506;-87
2021/06/15 05:20:24;;;;;;;0.17;0.13;;;21.90;92.00;;;;;;5022140;28;20029;-88
2021/06/15 05:23:03;;;;;;;0.10;0.10;;;22.20;90.70;;;;;;5026807;28;20116;-87
2021/06/15 05:25:30;;;;;;;0.10;0.10;;;21.60;90.90;;;;;;5021648;28;20024;-87
2021/06/15 05:27:56;;;;;;;;;;;22.10;90.90;;;;;;5014400;28;20511;-87
2021/06/15 05:30:23;;;;;;;0.38;0.35;;;21.90;90.30;;;;;;5022038;28;19951;-87
2021/06/15 05:32:49;;;;;;;0.08;0.08;;;22.20;90.40;;;;;;5022775;28;20437;-87
2021/06/15 05:35:15;;;;;;;0.25;0.08;;;22.30;90.10;;;;;;5029709;28;20036;-87
2021/06/15 05:37:41;;;;;;;;;;;22.70;87.90;;;;;;5019877;28;20022;-88
2021/06/15 05:40:07;;;;;;;;;;;22.10;88.60;;;;;;5027756;28;19916;-87
2021/06/15 05:42:33;;;;;;;0.00;0.00;;;22.20;89.90;;;;;;5024981;28;19995;-87
2021/06/15 05:44:59;;;;;;;0.03;0.03;;;22.50;88.40;;;;;;5036993;28;20026;-88
2021/06/15 05:47:25;;;;;;;0.30;0.30;;;22.50;86.80;;;;;;5022099;28;20120;-88
2021/06/15 05:49:51;;;;;;;0.10;0.10;;;22.80;84.70;;;;;;5028336;28;20141;-88
2021/06/15 05:52:18;;;;;;;0.20;0.20;;;22.70;85.00;;;;;;5045411;28;20034;-89
2021/06/15 05:54:44;;;;;;;0.57;0.30;;;23.70;81.90;;;;;;5024114;28;20511;-90
2021/06/15 05:57:11;;;;;;;0.45;0.00;;;23.60;80.90;;;;;;5045439;28;20053;-89
2021/06/15 05:59:37;;;;;;;0.98;0.63;;;23.30;79.80;;;;;;5029064;28;20033;-89
2021/06/15 06:02:04;;;;;;;0.00;0.00;;;23.50;79.80;;;;;;5029315;28;20040;-87
2021/06/15 06:10:16;;;;;;;0.08;0.08;;;23.90;75.10;;;;;;4892759;29;20423;-88
2021/06/15 06:12:42;;;;;;;0.00;0.00;;;24.30;73.50;;;;;;4893053;29;20036;-91
2021/06/15 06:15:11;;;;;;;0.88;0.28;;;25.00;72.10;;;;;;4893214;29;20036;-91
2021/06/15 06:17:39;;;;;;;0.15;0.08;;;24.90;69.20;;;;;;4893198;29;20048;-91
2021/06/15 06:20:06;;;;;;;0.10;0.10;;;24.90;69.90;;;;;;4894432;29;20120;-92
2021/06/15 06:22:32;;;;;;;0.15;0.15;;;24.70;70.20;;;;;;4893805;29;20029;-90
2021/06/15 06:25:03;;;;;;;0.00;0.00;;;24.70;70.10;;;;;;4894057;29;20179;-92
2021/06/15 06:27:29;;;;;;;0.10;0.10;;;25.10;67.50;;;;;;4894251;29;20121;-91
2021/06/15 06:29:54;;;;;;;0.43;0.38;;;25.50;66.80;;;;;;4877744;29;20161;-90
2021/06/15 06:32:20;;;;;;;0.10;0.10;;;25.70;65.30;;;;;;4892997;29;20080;-91
2021/06/15 06:34:46;;;;;;;0.13;0.13;;;26.40;60.50;;;;;;4893382;29;20028;-91
2021/06/15 06:37:12;;;;;;;0.45;0.30;;;27.60;54.70;;;;;;4877840;29;20036;-91
2021/06/15 06:39:39;;;;;;;0.05;0.05;;;27.40;54.60;;;;;;4877330;29;20036;-91
2021/06/15 06:42:05;;;;;;;0.20;0.20;;;27.80;54.60;;;;;;4893184;29;20123;-90
2021/06/15 06:44:31;;;;;;;0.08;0.08;;;28.00;53.70;;;;;;4961597;28;20038;-91
2021/06/15 06:46:56;;;;;;;;;;;29.90;48.70;;;;;;5011318;28;20030;-92
2021/06/15 06:49:22;;;;;;;0.00;0.00;;;29.10;46.80;;;;;;5025772;28;19905;-92
2021/06/15 06:51:48;;;;;;;;;;;27.90;49.70;;;;;;5009658;28;20129;-91
2021/06/15 06:54:13;;;;;;;0.00;0.00;;;29.30;47.20;;;;;;5028564;28;19959;-91
2021/06/15 06:56:39;;;;;;;;;;;28.70;47.70;;;;;;5029159;28;20036;-91
2021/06/15 06:59:05;;;;;;;0.10;0.10;;;28.70;45.70;;;;;;5030411;28;19905;-91
2021/06/15 07:01:30;;;;;;;;;;;29.20;44.00;;;;;;5030377;28;20108;-90
2021/06/15 07:03:56;;;;;;;0.00;0.00;;;28.50;44.80;;;;;;5028500;28;20353;-92
2021/06/15 07:06:22;;;;;;;;;;;27.90;45.10;;;;;;5030111;28;20442;-90
2021/06/15 07:08:48;;;;;;;0.03;0.03;;;29.20;44.10;;;;;;5028259;28;19909;-91
2021/06/15 07:11:14;;;;;;;0.03;0.03;;;30.80;39.00;;;;;;5029844;28;20088;-90
2021/06/15 07:13:40;;;;;;;0.03;0.03;;;29.90;40.20;;;;;;5028555;28;20029;-91
2021/06/15 07:16:06;;;;;;;0.00;0.00;;;29.40;42.30;;;;;;5028413;28;20026;-91
2021/06/15 07:18:36;;;;;;;1.15;0.10;;;30.30;38.20;;;;;;5028436;28;20445;-90
2021/06/15 07:21:06;;;;;;;0.10;0.00;;;30.40;32.40;;;;;;5028519;28;20116;-91
2021/06/15 07:23:32;;;;;;;0.35;0.20;;;30.60;36.40;;;;;;5028853;28;20029;-91
2021/06/15 07:25:59;;;;;;;0.00;0.00;;;31.20;35.80;;;;;;5027721;28;20056;-90
2021/06/15 07:28:24;;;;;;;0.00;0.00;;;30.30;34.60;;;;;;5045297;28;20044;-90
2021/06/15 07:30:51;;;;;;;0.30;0.10;;;31.70;33.20;;;;;;5044854;28;20822;-91
2021/06/15 07:33:17;;;;;;;2.17;0.40;;;31.00;34.60;;;;;;5045363;28;20029;-91
2021/06/15 07:35:44;;;;;;;0.00;0.00;;;30.90;33.30;;;;;;5045252;28;20041;-92
2021/06/15 07:38:09;;;;;;;0.00;0.00;;;31.90;29.80;;;;;;5045194;28;20034;-92
2021/06/15 07:40:35;;;;;;;0.00;0.00;;;32.60;29.00;;;;;;5045141;28;20040;-92
2021/06/15 07:43:01;;;;;;;0.10;0.10;;;32.80;29.40;;;;;;5045011;28;20029;-91
2021/06/15 07:45:31;;;;;;;0.30;0.30;;;31.80;29.10;;;;;;5045027;28;20022;-91
2021/06/15 07:47:57;;;;;;;0.10;0.05;;;32.90;22.80;;;;;;5045077;28;20501;-91
2021/06/15 07:50:23;;;;;;;0.25;0.25;;;32.70;26.10;;;;;;5030112;28;20041;-93
2021/06/15 07:52:49;;;;;;;0.10;0.10;;;34.20;23.20;;;;;;5030316;28;20025;-92
2021/06/15 07:55:17;;;;;;;0.30;0.10;;;33.80;23.20;;;;;;5028840;28;20025;-92
2021/06/15 07:57:44;;;;;;;0.20;0.10;;;33.30;31.80;;;;;;5030002;28;20036;-93
2021/06/15 08:00:11;;;;;;;0.00;0.00;;;32.90;18.90;;;;;;5028741;28;20030;-93
2021/06/15 08:02:37;;;;;;;0.10;0.10;;;34.60;19.50;;;;;;5028642;28;20025;-92
2021/06/15 08:05:05;;;;;;;0.00;0.00;;;36.10;15.50;;;;;;5049309;28;20584;-92
2021/06/15 08:07:31;;;;;;;0.20;0.10;;;35.50;12.20;;;;;;5049444;28;20506;-91
2021/06/15 08:09:57;;;;;;;0.10;0.10;;;38.30;8.90;;;;;;5031216;28;20056;-92
2021/06/15 08:12:23;;;;;;;0.05;0.05;;;38.90;4.80;;;;;;5049508;28;20234;-92
2021/06/15 08:14:49;;;;;;;0.03;0.03;;;37.40;8.30;;;;;;5031469;28;20040;-92
2021/06/15 08:17:15;;;;;;;0.20;0.20;;;37.20;8.90;;;;;;5031302;28;20430;-92
2021/06/15 08:19:41;;;;;;;0.10;0.10;;;36.30;8.80;;;;;;5031357;28;20127;-92
2021/06/15 08:22:07;;;;;;;0.05;0.05;;;37.40;8.90;;;;;;5030881;28;20043;-92
2021/06/15 08:24:33;;;;;;;0.10;0.00;;;36.00;10.50;;;;;;5031283;28;20033;-92
2021/06/15 08:26:59;;;;;;;0.00;0.00;;;36.60;9.50;;;;;;5002606;28;20030;-92
2021/06/15 08:29:26;;;;;;;0.32;0.30;;;37.40;5.70;;;;;;4991925;28;20033;-92
2021/06/15 08:31:52;;;;;;;0.45;0.05;;;38.20;4.20;;;;;;4992032;28;20026;-93
2021/06/15 08:34:18;;;;;;;1.27;0.20;;;36.60;7.10;;;;;;5009584;28;20038;-91
2021/06/15 08:36:44;;;;;;;0.00;0.00;;;36.20;8.70;;;;;;5009285;28;20034;-93
2021/06/15 08:39:10;;;;;;;0.10;0.10;;;37.10;3.10;;;;;;4995406;28;20033;-92
2021/06/15 08:41:36;;;;;;;0.10;0.10;;;38.90;4.60;;;;;;4995810;28;20022;-93
2021/06/15 08:44:06;;;;;;;0.00;0.00;;;40.00;1.00;;;;;;4995494;28;20032;-92
2021/06/15 08:46:33;;;;;;;0.20;0.10;;;38.60;2.00;;;;;;5013465;28;20026;-93
2021/06/15 08:49:00;;;;;;;0.00;0.00;;;38.80;1.00;;;;;;4995207;28;20026;-94
2021/06/15 08:51:27;;;;;;;0.10;0.10;;;39.70;1.00;;;;;;4994992;28;20534;-92
2021/06/15 08:54:02;;;;;;;0.30;0.20;;;39.20;1.00;;;;;;4994819;28;20030;-92
2021/06/15 08:56:32;;;;;;;0.95;0.28;;;38.10;1.00;;;;;;4994608;28;20030;-92
2021/06/15 08:59:19;;;;;;;0.10;0.10;;;39.10;1.00;;;;;;5013004;28;20021;-93
2021/06/15 09:01:51;;;;;;;0.05;0.05;;;40.30;1.00;;;;;;5011427;28;20179;-93
2021/06/15 09:04:17;;;;;;;0.10;0.10;;;38.10;1.00;;;;;;5012281;28;20050;-91
2021/06/15 09:06:46;;;;;;;0.08;0.08;;;38.40;1.00;;;;;;4978655;28;20280;-93
2021/06/15 09:09:12;;;;;;;0.32;0.20;;;39.00;1.00;;;;;;5011215;28;20176;-92
2021/06/15 09:11:53;;;;;;;0.10;0.10;;;40.40;1.00;;;;;;5012602;28;20380;-92
2021/06/15 09:14:44;;;;;;;0.50;0.43;;;42.30;1.00;;;;;;5012789;28;20142;-92
2021/06/15 09:17:32;;;;;;;0.00;0.00;;;43.30;1.00;;;;;;4995493;28;20037;-92
2021/06/15 09:20:17;;;;;;;0.00;0.00;;;41.10;1.00;;;;;;4994666;28;20762;-92
2021/06/15 09:22:43;;;;;;;0.10;0.10;;;42.20;1.00;;;;;;5012203;28;20492;-92
2021/06/15 09:25:14;;;;;;;0.63;0.32;;;43.20;1.00;;;;;;4995077;28;20033;-92
2021/06/15 09:27:41;;;;;;;0.10;0.10;;;43.40;1.00;;;;;;5014350;28;20108;-93
2021/06/15 09:30:09;;;;;;;1.08;0.13;;;41.70;1.00;;;;;;5014605;28;20041;-93
2021/06/15 09:32:41;;;;;;;0.00;0.00;;;41.50;1.00;;;;;;5030581;28;20499;-93
2021/06/15 09:35:18;;;;;;;0.00;0.00;;;42.40;1.00;;;;;;5014197;28;20026;-92
2021/06/15 09:37:50;;;;;;;0.00;0.00;;;42.40;1.00;;;;;;5031881;28;20083;-93
2021/06/15 09:40:26;;;;;;;0.10;0.10;;;43.20;1.00;;;;;;5013765;28;20112;-92
2021/06/15 09:43:02;;;;;;;0.03;0.03;;;42.90;1.00;;;;;;5030453;28;20033;-92
2021/06/15 09:45:35;;;;;;;0.00;0.00;;;43.60;1.00;;;;;;5029984;28;20052;-93
2021/06/15 09:48:30;;;;;;;0.10;0.10;;;42.80;1.00;;;;;;5031664;28;20025;-93
2021/06/15 09:50:57;;;;;;;;;;;43.50;1.00;;;;;;5014228;28;20037;-93
2021/06/15 09:53:36;;;;;;;0.10;0.00;;;43.70;1.00;;;;;;5014263;28;20386;-94
2021/06/15 09:56:07;;;;;;;0.10;0.10;;;43.30;1.00;;;;;;5015102;28;20789;-92
2021/06/15 09:58:49;;;;;;;0.20;0.20;;;42.90;1.00;;;;;;5014170;28;20552;-94
2021/06/15 10:01:42;;;;;;;0.08;0.08;;;42.70;1.00;;;;;;5013996;28;20037;-92
2021/06/15 10:04:20;;;;;;;0.25;0.00;;;42.60;1.00;;;;;;5022781;28;20045;-92
2021/06/15 10:06:54;;;;;;;0.00;0.00;;;43.10;1.00;;;;;;5029879;28;20029;-92
2021/06/15 10:09:27;;;;;;;0.03;0.03;;;41.30;1.00;;;;;;5029845;28;20072;-91
2021/06/15 10:11:55;;;;;;;0.00;0.00;;;40.80;1.00;;;;;;5046544;28;20075;-92
2021/06/15 10:14:22;;;;;;;0.10;0.10;;;40.20;1.00;;;;;;5030084;28;20029;-92
2021/06/15 10:16:49;;;;;;;0.03;0.03;;;41.30;1.00;;;;;;5029893;28;20083;-93
2021/06/15 10:19:15;;;;;;;0.00;0.00;;;41.90;1.00;;;;;;5031785;28;20079;-94
2021/06/15 10:21:41;;;;;;;0.00;0.00;;;39.60;1.00;;;;;;5030109;28;20034;-92
2021/06/15 10:24:07;;;;;;;;;;;39.90;1.00;;;;;;5031370;28;20029;-94
2021/06/15 10:26:34;;;;;;;0.32;0.32;;;39.30;1.00;;;;;;5031632;28;19905;-93
2021/06/15 10:29:01;;;;;;;0.17;0.17;;;41.00;1.00;;;;;;5031463;28;20025;-93
2021/06/15 10:31:31;;;;;;;0.10;0.10;;;44.30;1.00;;;;;;5031648;28;20478;-93
2021/06/15 10:33:58;;;;;;;0.10;0.10;;;42.00;1.00;;;;;;5031341;28;20079;-93
2021/06/15 10:36:44;;;;;;;0.00;0.00;;;41.40;1.00;;;;;;5031140;28;20851;-93
2021/06/15 10:39:17;;;;;;;0.10;0.10;;;41.50;1.00;;;;;;5031034;28;20048;-92
2021/06/15 10:41:42;;;;;;;0.68;0.55;;;41.10;1.00;;;;;;5030508;28;20037;-93
2021/06/15 10:44:09;;;;;;;;;;;42.90;1.00;;;;;;5029958;28;20032;-92
2021/06/15 10:46:38;;;;;;;0.20;0.20;;;40.90;1.00;;;;;;5030648;28;19909;-94
2021/06/15 10:49:15;;;;;;;0.00;0.00;;;39.80;1.00;;;;;;5032163;28;20091;-93
2021/06/15 10:51:42;;;;;;;0.30;0.30;;;40.70;1.00;;;;;;5032642;28;20028;-93
2021/06/15 10:54:30;;;;;;;0.50;0.50;;;42.10;1.00;;;;;;5048111;28;20037;-92
2021/06/15 10:57:29;;;;;;;0.47;0.10;;;41.50;1.00;;;;;;5046903;28;20561;-92
2021/06/15 11:00:03;;;;;;;0.20;0.20;;;41.00;1.00;;;;;;4970446;28;20186;-93
2021/06/15 11:02:31;;;;;;;0.00;0.00;;;40.70;1.00;;;;;;4970380;28;20097;-93
2021/06/15 11:04:59;;;;;;;0.25;0.20;;;39.20;1.00;;;;;;4971108;28;20524;-93
2021/06/15 11:07:38;;;;;;;0.00;0.00;;;40.30;1.00;;;;;;4970609;28;20555;-93
2021/06/15 11:10:05;;;;;;;2.90;0.85;;;40.60;1.00;;;;;;4970121;28;20146;-93
2021/06/15 11:12:44;;;;;;;0.65;0.38;;;40.30;1.00;;;;;;4971885;28;20058;-93
2021/06/15 11:15:21;;;;;;;0.10;0.10;;;39.00;1.00;;;;;;4971844;28;20173;-93
2021/06/15 11:18:15;;;;;;;0.55;0.43;;;40.10;1.00;;;;;;4972312;28;20444;-94
2021/06/15 11:20:41;;;;;;;0.10;0.10;;;41.70;1.00;;;;;;4956024;28;20039;-93
2021/06/15 11:23:17;;;;;;;0.00;0.00;;;39.00;1.00;;;;;;4971886;28;20035;-94
2021/06/15 11:25:52;;;;;;;0.03;0.03;;;38.40;1.00;;;;;;4971997;28;20035;-94
2021/06/15 11:28:36;;;;;;;;;;;39.00;1.00;;;;;;4972198;28;20527;-93
2021/06/15 11:31:17;;;;;;;0.28;0.28;;;37.80;1.00;;;;;;4955297;28;19906;-93
2021/06/15 11:34:02;;;;;;;0.10;0.10;;;32.80;1.00;;;;;;4971815;28;20062;-93
2021/06/15 11:36:43;;;;;;;0.63;0.10;;;32.30;1.00;;;;;;5007763;28;20029;-94
2021/06/15 11:39:32;;;;;;;0.10;0.10;;;32.20;1.00;;;;;;4994793;28;20080;-93
2021/06/15 11:42:09;;;;;;;0.10;0.10;;;31.80;1.00;;;;;;4990119;28;20053;-93
2021/06/15 11:44:59;;;;;;;0.10;0.10;;;31.40;1.00;;;;;;4995035;28;20026;-93
2021/06/15 11:47:31;;;;;;;0.00;0.00;;;31.40;1.00;;;;;;4994681;28;20022;-92
2021/06/15 11:50:30;;;;;;;0.20;0.20;;;31.70;1.00;;;;;;4994618;28;20083;-93
2021/06/15 11:53:01;;;;;;;0.20;0.20;;;31.90;1.00;;;;;;4994010;28;20051;-93
2021/06/15 11:55:34;;;;;;;0.10;0.10;;;30.70;1.00;;;;;;5011558;28;20033;-94
2021/06/15 11:58:05;;;;;;;0.75;0.40;;;30.10;1.00;;;;;;4995224;28;20033;-93
2021/06/15 12:00:34;;;;;;;0.20;0.20;;;30.30;1.00;;;;;;4995186;28;20391;-94
2021/06/15 12:03:07;;;;;;;0.00;0.00;;;31.40;1.00;;;;;;4997819;28;20083;-94
2021/06/15 12:05:34;;;;;;;0.00;0.00;;;31.30;1.00;;;;;;5031428;28;20064;-93
2021/06/15 12:07:59;;;;;;;0.32;0.22;;;31.40;1.00;;;;;;5031477;28;20437;-93
2021/06/15 12:10:27;;;;;;;0.10;0.10;;;31.00;1.00;;;;;;5030784;28;20120;-93
2021/06/15 12:13:09;;;;;;;0.10;0.10;;;31.20;1.00;;;;;;5033693;28;20048;-93
2021/06/15 12:15:47;;;;;;;0.30;0.10;;;30.90;1.00;;;;;;5035706;28;20478;-94
2021/06/15 12:18:22;;;;;;;0.10;0.10;;;31.30;1.00;;;;;;5035839;28;20112;-93
2021/06/15 12:21:13;;;;;;;0.32;0.20;;;31.20;1.00;;;;;;5052020;28;20555;-94
2021/06/15 12:23:43;;;;;;;0.10;0.10;;;31.20;1.00;;;;;;5035228;28;20021;-93
2021/06/15 12:26:13;;;;;;;0.00;0.00;;;30.50;1.00;;;;;;5043971;28;20025;-93
2021/06/15 12:28:41;;;;;;;0.15;0.15;;;30.90;1.10;;;;;;5015215;28;20052;-94
2021/06/15 12:31:20;;;;;;;0.05;0.05;;;30.90;1.00;;;;;;5014907;28;20026;-93
2021/06/15 12:33:53;;;;;;;3.95;0.65;;;30.80;1.10;;;;;;5014812;28;20030;-92
2021/06/15 12:36:21;;;;;;;0.00;0.00;;;30.70;1.00;;;;;;5014604;28;20030;-94
2021/06/15 12:38:48;;;;;;;1.83;0.40;;;31.10;2.30;;;;;;5014799;28;20018;-93
2021/06/15 12:41:18;;;;;;;0.00;0.00;;;31.20;1.10;;;;;;5014766;28;20495;-93
2021/06/15 12:43:44;;;;;;;0.30;0.30;;;30.80;2.60;;;;;;5014713;28;20526;-93
2021/06/15 12:46:16;;;;;;;0.25;0.25;;;30.70;1.40;;;;;;5015247;28;20025;-93
2021/06/15 12:48:45;;;;;;;0.10;0.10;;;30.30;2.10;;;;;;5014765;28;20133;-93
2021/06/15 12:51:13;;;;;;;0.00;0.00;;;30.10;2.70;;;;;;5015804;28;20403;-93
2021/06/15 12:53:42;;;;;;;0.00;0.00;;;30.70;2.60;;;;;;5014239;28;20040;-93
2021/06/15 12:56:27;;;;;;;0.00;0.00;;;30.70;1.90;;;;;;5014674;28;20037;-93
2021/06/15 12:58:56;;;;;;;0.03;0.03;;;30.70;2.60;;;;;;5014500;28;20395;-93
2021/06/15 13:01:36;;;;;;;0.08;0.08;;;30.70;3.10;;;;;;5030829;28;20041;-92
2021/06/15 13:04:19;;;;;;;0.00;0.00;;;30.60;4.00;;;;;;5014438;28;20045;-94
2021/06/15 13:06:46;;;;;;;0.00;0.00;;;30.50;2.90;;;;;;5014863;28;20097;-94
2021/06/15 13:09:18;;;;;;;0.30;0.20;;;30.50;3.20;;;;;;5015322;28;20415;-93
2021/06/15 13:12:05;;;;;;;1.92;0.57;;;30.30;3.20;;;;;;5015008;28;20029;-93
2021/06/15 13:14:36;;;;;;;0.10;0.05;;;30.40;3.50;;;;;;5014758;28;20026;-94
2021/06/15 13:17:12;;;;;;;0.43;0.13;;;30.30;3.40;;;;;;5014656;28;20030;-93
2021/06/15 13:19:47;;;;;;;0.55;0.38;;;30.60;5.60;;;;;;5014586;28;20113;-93